Time;durP1;ratioP1;P1;durP2;ratioP2;P2;SDS_P1;SDS_P2;PMS_P1;PMS_P2;Temp;Humidity;BMP_temperature;BMP_pressure;BME280_temperature;BME280_humidity;BME280_pressure;Samples;Min_cycle;Max_cycle;Signal;HPM_P1;HPM_P2
2022/04/05 00:01:18;;;;;;;7.00;2.10;;;7.60;99.90;;;;;;5040959;28;20047;-77
2022/04/05 00:03:44;;;;;;;12.60;2.73;;;7.60;99.90;;;;;;5067344;28;20075;-76
2022/04/05 00:06:10;;;;;;;7.53;2.10;;;7.50;99.90;;;;;;5035497;28;20140;-77
2022/04/05 00:08:35;;;;;;;9.53;2.53;;;7.50;99.90;;;;;;5067687;28;20415;-77
2022/04/05 00:11:01;;;;;;;9.43;2.80;;;7.60;99.90;;;;;;5076447;28;20102;-79
2022/04/05 00:13:27;;;;;;;8.43;2.13;;;7.50;99.90;;;;;;5052978;28;20036;-78
2022/04/05 00:15:54;;;;;;;7.17;2.47;;;7.50;99.90;;;;;;5042385;28;20060;-77
2022/04/05 00:18:20;;;;;;;13.10;2.60;;;7.50;99.90;;;;;;5076722;28;20058;-77
2022/04/05 00:20:45;;;;;;;9.70;2.17;;;7.50;99.90;;;;;;5068026;28;20047;-78
2022/04/05 00:23:11;;;;;;;13.07;2.10;;;7.40;99.90;;;;;;5052843;28;20130;-77
2022/04/05 00:25:37;;;;;;;7.23;2.00;;;7.40;99.90;;;;;;5075248;28;20126;-77
2022/04/05 00:28:03;;;;;;;11.00;2.30;;;7.50;99.90;;;;;;5050543;28;20036;-77
2022/04/05 00:30:29;;;;;;;10.53;2.33;;;7.40;99.90;;;;;;5080390;28;20052;-77
2022/04/05 00:32:56;;;;;;;9.03;2.10;;;7.40;99.90;;;;;;5059609;28;20036;-76
2022/04/05 00:35:23;;;;;;;6.07;1.90;;;7.40;99.90;;;;;;5058289;28;20566;-76
2022/04/05 00:37:50;;;;;;;10.30;1.90;;;7.40;99.90;;;;;;5055392;28;20044;-77
2022/04/05 00:40:16;;;;;;;9.57;2.10;;;7.40;99.90;;;;;;5086924;28;20575;-77
2022/04/05 00:42:42;;;;;;;7.47;1.80;;;7.30;99.90;;;;;;5057239;28;20158;-77
2022/04/05 00:45:09;;;;;;;9.00;2.00;;;7.30;99.90;;;;;;5075321;28;20040;-77
2022/04/05 00:47:35;;;;;;;3.87;1.30;;;7.30;99.90;;;;;;5077326;28;20581;-78
2022/04/05 00:50:04;;;;;;;8.23;1.63;;;7.30;99.90;;;;;;5062469;28;20040;-76
2022/04/05 00:52:30;;;;;;;7.03;1.70;;;7.30;99.90;;;;;;5064977;28;20576;-77
2022/04/05 00:54:58;;;;;;;10.27;1.80;;;7.30;99.90;;;;;;5060449;28;20178;-76
2022/04/05 00:57:24;;;;;;;7.10;1.10;;;7.30;99.90;;;;;;5070797;28;20048;-76
2022/04/05 00:59:54;;;;;;;10.03;1.77;;;7.20;99.90;;;;;;5069279;28;20055;-76
2022/04/05 01:02:21;;;;;;;6.63;1.23;;;7.20;99.90;;;;;;5063860;28;20074;-76
2022/04/05 01:04:48;;;;;;;5.30;1.60;;;7.20;99.90;;;;;;5086096;28;20578;-76
2022/04/05 01:07:16;;;;;;;6.77;1.60;;;7.20;99.90;;;;;;5063922;28;20048;-77
2022/04/05 01:09:42;;;;;;;6.50;1.33;;;7.20;99.90;;;;;;5069100;28;20098;-76
2022/04/05 01:12:10;;;;;;;5.77;1.43;;;7.20;99.90;;;;;;5073419;28;20036;-77
2022/04/05 01:14:36;;;;;;;6.77;1.57;;;7.10;99.90;;;;;;5075941;28;20048;-76
2022/04/05 01:17:03;;;;;;;7.93;1.67;;;7.10;99.90;;;;;;5071353;28;20044;-76
2022/04/05 01:19:30;;;;;;;6.20;1.33;;;7.20;99.90;;;;;;5096477;28;20068;-77
2022/04/05 01:21:56;;;;;;;6.80;1.20;;;7.10;99.90;;;;;;5038759;28;20041;-77
2022/04/05 01:24:24;;;;;;;4.33;1.23;;;7.10;99.90;;;;;;5082079;28;20058;-75
2022/04/05 01:26:51;;;;;;;11.13;1.70;;;7.10;99.90;;;;;;5049084;28;20125;-76
2022/04/05 01:29:18;;;;;;;7.10;1.20;;;7.10;99.90;;;;;;5065541;28;20411;-76
2022/04/05 01:31:46;;;;;;;5.63;1.63;;;7.10;99.90;;;;;;5050606;28;20056;-76
2022/04/05 01:34:12;;;;;;;5.07;1.20;;;7.10;99.90;;;;;;5057583;28;20044;-76
2022/04/05 01:36:43;;;;;;;7.20;1.80;;;7.10;99.90;;;;;;5063701;28;20052;-75
2022/04/05 01:39:09;;;;;;;9.00;1.40;;;7.10;99.90;;;;;;5069945;28;20045;-77
2022/04/05 01:41:36;;;;;;;7.30;1.77;;;7.10;99.90;;;;;;5036944;28;20040;-76
2022/04/05 01:44:02;;;;;;;7.97;1.60;;;7.00;99.90;;;;;;5076287;28;21695;-76
2022/04/05 01:46:28;;;;;;;4.63;1.30;;;7.00;99.90;;;;;;5071542;28;20466;-76
2022/04/05 01:48:53;;;;;;;10.73;1.50;;;7.00;99.90;;;;;;5061425;28;20124;-76
2022/04/05 01:51:19;;;;;;;6.83;1.50;;;7.00;99.90;;;;;;5054172;28;20044;-76
2022/04/05 01:53:45;;;;;;;8.80;1.77;;;7.00;99.90;;;;;;5055154;28;20072;-75
2022/04/05 01:56:10;;;;;;;10.67;1.77;;;7.00;99.90;;;;;;5055056;28;20131;-76
2022/04/05 01:58:38;;;;;;;5.33;1.40;;;7.00;99.90;;;;;;5073626;28;20032;-76
2022/04/05 02:01:03;;;;;;;7.93;1.67;;;7.00;99.90;;;;;;5052891;28;20052;-76
2022/04/05 02:03:29;;;;;;;8.03;1.90;;;7.00;99.90;;;;;;5070202;28;20031;-75
2022/04/05 02:05:58;;;;;;;5.17;1.40;;;7.00;99.90;;;;;;5068674;28;20068;-76
2022/04/05 02:08:25;;;;;;;12.40;1.67;;;7.00;99.90;;;;;;5066037;28;20062;-76
2022/04/05 02:10:51;;;;;;;10.77;1.80;;;7.00;99.90;;;;;;5057055;28;20127;-76
2022/04/05 02:13:18;;;;;;;8.73;1.90;;;7.00;99.90;;;;;;5098200;27;20512;-77
2022/04/05 02:15:50;;;;;;;9.30;2.20;;;7.00;99.90;;;;;;5057914;28;20412;-77
2022/04/05 02:18:16;;;;;;;8.07;1.67;;;7.00;99.90;;;;;;5075183;28;20040;-76
2022/04/05 02:20:44;;;;;;;12.93;1.80;;;7.00;99.90;;;;;;5056519;28;20944;-76
2022/04/05 02:23:12;;;;;;;11.40;1.80;;;7.00;99.90;;;;;;5054663;28;20511;-76
2022/04/05 02:26:03;;;;;;;5.33;1.70;;;7.00;99.90;;;;;;5082358;28;20420;-76
2022/04/05 02:28:33;;;;;;;8.03;2.53;;;7.10;99.90;;;;;;5083528;28;20043;-76
2022/04/05 02:31:05;;;;;;;7.63;1.70;;;7.10;99.90;;;;;;5074947;28;20044;-75
2022/04/05 02:33:35;;;;;;;7.13;1.90;;;7.00;99.90;;;;;;5069593;28;20044;-76
2022/04/05 02:36:06;;;;;;;6.13;1.70;;;7.10;99.90;;;;;;5057784;28;20040;-76
2022/04/05 02:38:32;;;;;;;8.57;2.27;;;7.10;99.90;;;;;;5048120;28;20044;-76
2022/04/05 02:40:59;;;;;;;9.20;2.20;;;7.10;99.90;;;;;;5052402;28;20069;-76
2022/04/05 02:43:27;;;;;;;9.23;2.33;;;7.10;99.90;;;;;;5060253;28;20044;-76
2022/04/05 02:45:55;;;;;;;7.23;2.27;;;7.10;99.90;;;;;;5070202;28;20462;-76
2022/04/05 02:48:23;;;;;;;9.60;2.70;;;7.10;99.90;;;;;;5070199;28;20158;-76
2022/04/05 02:50:52;;;;;;;10.53;2.50;;;7.10;99.90;;;;;;5050863;28;20053;-76
2022/04/05 02:53:19;;;;;;;10.63;2.60;;;7.10;99.90;;;;;;5067892;28;20036;-76
2022/04/05 02:55:45;;;;;;;8.73;2.43;;;7.10;99.90;;;;;;5071838;28;20056;-76
2022/04/05 02:58:11;;;;;;;5.77;2.07;;;7.10;99.90;;;;;;5072566;28;20043;-76
2022/04/05 03:00:38;;;;;;;8.13;2.10;;;7.10;99.90;;;;;;5052305;28;20059;-75
2022/04/05 03:03:10;;;;;;;9.63;2.50;;;7.10;99.90;;;;;;5066817;28;20445;-76
2022/04/05 03:05:40;;;;;;;7.83;2.53;;;7.10;99.90;;;;;;5081927;28;20044;-76
2022/04/05 03:08:07;;;;;;;8.13;2.53;;;7.10;99.90;;;;;;5061211;28;20053;-75
2022/04/05 03:10:34;;;;;;;7.57;2.17;;;7.10;99.90;;;;;;5069762;28;20044;-76
2022/04/05 03:13:02;;;;;;;12.23;2.47;;;7.10;99.90;;;;;;5066429;28;20036;-76
2022/04/05 03:15:29;;;;;;;12.33;2.53;;;7.10;99.90;;;;;;5057852;28;20474;-76
2022/04/05 03:17:58;;;;;;;8.83;2.60;;;7.10;99.90;;;;;;5072204;28;20036;-76
2022/04/05 03:20:26;;;;;;;10.03;2.50;;;7.10;99.90;;;;;;5051045;28;20422;-76
2022/04/05 03:22:56;;;;;;;8.70;2.30;;;7.10;99.90;;;;;;5076478;28;20040;-76
2022/04/05 03:25:23;;;;;;;9.40;2.40;;;7.10;99.90;;;;;;5074665;28;20127;-76
2022/04/05 03:27:50;;;;;;;11.80;2.63;;;7.10;99.90;;;;;;5055443;28;20173;-76
2022/04/05 03:30:22;;;;;;;10.27;2.60;;;7.10;99.90;;;;;;5040290;28;20052;-76
2022/04/05 03:32:48;;;;;;;13.80;2.63;;;7.10;99.90;;;;;;5065476;28;20123;-76
2022/04/05 03:35:14;;;;;;;11.23;2.50;;;7.10;99.90;;;;;;5073223;28;20399;-76
2022/04/05 03:37:41;;;;;;;10.20;2.57;;;7.10;99.90;;;;;;5040411;28;20048;-76
2022/04/05 03:40:12;;;;;;;9.77;2.73;;;7.10;99.90;;;;;;5085251;28;20071;-76
2022/04/05 03:42:38;;;;;;;9.10;2.23;;;7.10;99.90;;;;;;5067541;28;20499;-76
2022/04/05 03:45:05;;;;;;;11.53;2.20;;;7.10;99.90;;;;;;5068258;28;20045;-76
2022/04/05 03:47:31;;;;;;;7.20;2.00;;;7.10;99.90;;;;;;5073543;28;20044;-75
2022/04/05 03:49:58;;;;;;;8.03;2.50;;;7.10;99.90;;;;;;5073232;28;20042;-76
2022/04/05 03:52:24;;;;;;;7.50;2.20;;;7.10;99.90;;;;;;5066236;28;20059;-76
2022/04/05 03:54:49;;;;;;;13.40;2.53;;;7.10;99.90;;;;;;5053167;28;20048;-76
2022/04/05 03:57:20;;;;;;;10.73;2.60;;;7.10;99.90;;;;;;5072290;28;20455;-76
2022/04/05 03:59:46;;;;;;;16.40;2.70;;;7.10;99.90;;;;;;5055434;28;20056;-77
2022/04/05 04:02:12;;;;;;;10.47;2.87;;;7.10;99.90;;;;;;5070280;28;20040;-76
2022/04/05 04:04:38;;;;;;;7.53;2.67;;;7.10;99.90;;;;;;5074239;28;20036;-77
2022/04/05 04:07:05;;;;;;;9.43;2.70;;;7.10;99.90;;;;;;5081951;28;20047;-76
2022/04/05 04:09:32;;;;;;;10.27;2.80;;;7.10;99.90;;;;;;5064791;28;20040;-76
2022/04/05 04:11:57;;;;;;;15.47;3.20;;;7.10;99.90;;;;;;5040991;28;20032;-77
2022/04/05 04:14:25;;;;;;;11.20;3.27;;;7.10;99.90;;;;;;5069541;28;20032;-77
2022/04/05 04:16:51;;;;;;;11.80;2.83;;;7.10;99.90;;;;;;5054817;28;20465;-76
2022/04/05 04:19:16;;;;;;;11.50;3.40;;;7.10;99.90;;;;;;5070538;28;20032;-76
2022/04/05 04:21:42;;;;;;;9.70;2.70;;;7.10;99.90;;;;;;5037784;28;20052;-76
2022/04/05 04:24:08;;;;;;;8.23;2.63;;;7.10;99.90;;;;;;5059398;28;20446;-76
2022/04/05 04:26:35;;;;;;;12.33;3.13;;;7.10;99.90;;;;;;5041984;28;20500;-76
2022/04/05 04:29:04;;;;;;;12.17;2.93;;;7.10;99.90;;;;;;5068646;28;20120;-76
2022/04/05 04:31:31;;;;;;;14.73;3.70;;;7.10;99.90;;;;;;5040021;28;20131;-75
2022/04/05 04:33:57;;;;;;;13.83;3.27;;;7.10;99.90;;;;;;5067641;28;20044;-76
2022/04/05 04:36:23;;;;;;;12.73;3.03;;;7.10;99.90;;;;;;5099405;27;20044;-77
2022/04/05 04:38:49;;;;;;;13.90;2.90;;;7.10;99.90;;;;;;5068119;28;20044;-76
2022/04/05 04:41:15;;;;;;;11.87;3.37;;;7.10;99.90;;;;;;5060727;28;20113;-76
2022/04/05 04:43:41;;;;;;;11.70;3.40;;;7.10;99.90;;;;;;5070039;28;20083;-76
2022/04/05 04:46:07;;;;;;;16.73;3.43;;;7.10;99.90;;;;;;5060424;28;20045;-76
2022/04/05 04:48:34;;;;;;;17.77;3.30;;;7.10;99.90;;;;;;5070682;28;20158;-76
2022/04/05 04:51:00;;;;;;;11.73;3.30;;;7.10;99.90;;;;;;5066639;28;20049;-76
2022/04/05 04:53:25;;;;;;;11.60;3.23;;;7.10;99.90;;;;;;5051560;28;20046;-76
2022/04/05 04:55:52;;;;;;;13.77;3.07;;;7.10;99.90;;;;;;5073684;28;20135;-76
2022/04/05 04:58:18;;;;;;;14.03;4.23;;;7.10;99.90;;;;;;5087010;28;20506;-76
2022/04/05 05:00:44;;;;;;;11.37;4.37;;;7.10;99.90;;;;;;5064108;28;20044;-75
2022/04/05 05:03:11;;;;;;;19.17;4.60;;;7.10;99.90;;;;;;5055124;28;20044;-77
2022/04/05 05:05:38;;;;;;;11.00;3.67;;;7.10;99.90;;;;;;5053162;28;20131;-76
2022/04/05 05:08:04;;;;;;;20.97;8.60;;;7.10;99.90;;;;;;5055746;28;20051;-76
2022/04/05 05:10:30;;;;;;;17.33;4.60;;;7.10;99.90;;;;;;5078137;28;20048;-76
2022/04/05 05:12:55;;;;;;;12.97;3.60;;;7.10;99.90;;;;;;5078760;28;20059;-76
2022/04/05 05:15:21;;;;;;;9.97;4.03;;;7.10;99.90;;;;;;5073479;28;20055;-76
2022/04/05 05:17:48;;;;;;;10.13;3.70;;;7.10;99.90;;;;;;5054888;28;20191;-76
2022/04/05 05:20:15;;;;;;;14.63;3.73;;;7.10;99.90;;;;;;5078896;28;20499;-76
2022/04/05 05:22:42;;;;;;;12.83;3.77;;;7.10;99.90;;;;;;5052198;28;20122;-77
2022/04/05 05:25:09;;;;;;;14.07;3.93;;;7.10;99.90;;;;;;5051643;28;20168;-76
2022/04/05 05:27:37;;;;;;;12.83;3.90;;;7.10;99.90;;;;;;5084464;28;20449;-76
2022/04/05 05:30:05;;;;;;;13.90;3.87;;;7.10;99.90;;;;;;5067950;28;20043;-77
2022/04/05 05:32:31;;;;;;;14.73;3.33;;;7.20;99.90;;;;;;5069603;28;20415;-77
2022/04/05 05:34:56;;;;;;;19.97;3.83;;;7.20;99.90;;;;;;5072589;28;20044;-76
2022/04/05 05:37:22;;;;;;;18.43;3.43;;;7.20;99.90;;;;;;5098583;28;20444;-76
2022/04/05 05:39:49;;;;;;;14.30;3.63;;;7.20;99.90;;;;;;5047045;28;20053;-76
2022/04/05 05:42:15;;;;;;;11.13;3.23;;;7.20;99.90;;;;;;5058994;28;20036;-76
2022/04/05 05:44:40;;;;;;;11.63;3.77;;;7.30;99.90;;;;;;5062623;28;20053;-76
2022/04/05 05:47:06;;;;;;;15.87;4.37;;;7.30;99.90;;;;;;5072473;28;20045;-76
2022/04/05 05:49:32;;;;;;;10.83;3.13;;;7.30;99.90;;;;;;5083795;28;20510;-76
2022/04/05 05:51:58;;;;;;;12.23;3.80;;;7.40;99.90;;;;;;5048396;28;20123;-76
2022/04/05 05:54:24;;;;;;;13.70;3.37;;;7.40;99.90;;;;;;5066691;28;20115;-76
2022/04/05 05:56:51;;;;;;;16.00;3.67;;;7.40;99.90;;;;;;5059830;28;20048;-76
2022/04/05 05:59:16;;;;;;;14.00;3.60;;;7.40;99.90;;;;;;5054365;28;20044;-76
2022/04/05 06:01:42;;;;;;;13.67;3.63;;;7.40;99.90;;;;;;5069429;28;20053;-76
2022/04/05 06:04:08;;;;;;;9.53;2.47;;;7.40;99.90;;;;;;5071788;28;20501;-77
2022/04/05 06:06:33;;;;;;;14.47;3.10;;;7.50;99.90;;;;;;5070604;28;20040;-77
2022/04/05 06:08:59;;;;;;;11.17;2.83;;;7.50;99.90;;;;;;5052889;28;20037;-77
2022/04/05 06:11:25;;;;;;;9.43;2.67;;;7.60;99.90;;;;;;5068693;28;20048;-77
2022/04/05 06:13:52;;;;;;;9.53;3.00;;;7.60;99.90;;;;;;5081369;28;20056;-76
2022/04/05 06:16:21;;;;;;;14.50;2.83;;;7.60;99.90;;;;;;5061145;28;20044;-77
2022/04/05 06:18:49;;;;;;;12.60;3.13;;;7.60;99.90;;;;;;5063260;28;20413;-76
2022/04/05 06:21:16;;;;;;;10.53;2.47;;;7.60;99.90;;;;;;5059661;28;20047;-76
2022/04/05 06:23:41;;;;;;;8.30;2.90;;;7.60;99.90;;;;;;5074059;28;20048;-76
2022/04/05 06:26:07;;;;;;;13.07;2.30;;;7.60;99.90;;;;;;5064068;28;20409;-76
2022/04/05 06:28:33;;;;;;;11.73;2.70;;;7.70;99.90;;;;;;5083983;28;20040;-76
2022/04/05 06:31:00;;;;;;;9.70;2.73;;;7.70;99.90;;;;;;5044738;28;20048;-75
2022/04/05 06:33:26;;;;;;;8.30;2.67;;;7.70;99.90;;;;;;5058226;28;20044;-77
2022/04/05 06:35:53;;;;;;;11.77;2.60;;;7.70;99.90;;;;;;5084399;28;20674;-77
2022/04/05 06:38:20;;;;;;;9.67;2.40;;;7.70;99.90;;;;;;5053453;28;20074;-76
2022/04/05 06:40:46;;;;;;;8.27;2.30;;;7.70;99.90;;;;;;5061193;28;20161;-77
2022/04/05 06:43:12;;;;;;;7.03;2.63;;;7.70;99.90;;;;;;5048614;28;20130;-76
2022/04/05 06:45:38;;;;;;;9.60;2.37;;;7.80;99.90;;;;;;5045249;28;20511;-76
2022/04/05 06:48:06;;;;;;;10.70;2.77;;;7.80;99.90;;;;;;5037160;28;20132;-76
2022/04/05 06:50:32;;;;;;;11.57;2.50;;;7.90;99.90;;;;;;5040421;28;20052;-76
2022/04/05 06:52:59;;;;;;;13.03;2.50;;;8.00;99.90;;;;;;5072808;28;20044;-75
2022/04/05 06:55:26;;;;;;;10.63;1.90;;;8.00;99.90;;;;;;5081608;28;20063;-75
2022/04/05 06:57:53;;;;;;;9.67;2.73;;;8.10;99.90;;;;;;5049189;28;20062;-76
2022/04/05 07:00:22;;;;;;;9.60;2.53;;;8.20;99.90;;;;;;5066434;28;20125;-77
2022/04/05 07:02:48;;;;;;;9.87;2.47;;;8.30;99.90;;;;;;5084626;28;20045;-77
2022/04/05 07:05:15;;;;;;;10.43;2.30;;;8.30;99.90;;;;;;5063237;28;20148;-77
2022/04/05 07:07:41;;;;;;;9.60;1.90;;;8.40;99.90;;;;;;5067852;28;20068;-76
2022/04/05 07:10:09;;;;;;;7.10;1.70;;;8.40;99.90;;;;;;5028376;28;20041;-77
2022/04/05 07:12:35;;;;;;;7.60;1.80;;;8.40;99.90;;;;;;5047941;28;20554;-77
2022/04/05 07:15:01;;;;;;;6.97;1.93;;;8.40;99.90;;;;;;5058448;28;20537;-76
2022/04/05 07:17:27;;;;;;;6.80;1.63;;;8.40;99.90;;;;;;5045013;28;20052;-77
2022/04/05 07:19:53;;;;;;;8.77;1.77;;;8.40;99.90;;;;;;5052011;28;20041;-77
2022/04/05 07:22:20;;;;;;;7.83;2.20;;;8.40;99.90;;;;;;5046955;28;20723;-76
2022/04/05 07:24:46;;;;;;;8.60;1.80;;;8.50;99.90;;;;;;5045592;28;20139;-75
2022/04/05 07:27:12;;;;;;;5.97;1.53;;;8.50;99.90;;;;;;5086515;28;20039;-77
2022/04/05 07:29:38;;;;;;;7.17;1.50;;;8.60;99.90;;;;;;5046936;28;20094;-77
2022/04/05 07:32:04;;;;;;;5.03;1.30;;;8.60;99.90;;;;;;5062365;28;20055;-75
2022/04/05 07:34:30;;;;;;;6.10;1.53;;;8.60;99.90;;;;;;5059111;28;20683;-76
2022/04/05 07:36:56;;;;;;;5.73;1.50;;;8.60;99.90;;;;;;5063145;28;20036;-74
2022/04/05 07:39:24;;;;;;;8.70;2.07;;;8.70;99.90;;;;;;5075197;28;20041;-75
2022/04/05 07:41:50;;;;;;;7.83;1.67;;;8.70;99.90;;;;;;5074202;28;20573;-77
2022/04/05 07:44:16;;;;;;;6.97;1.50;;;8.80;99.90;;;;;;5056514;28;21966;-76
2022/04/05 07:46:41;;;;;;;6.87;1.40;;;8.90;99.90;;;;;;5047440;28;20045;-76
2022/04/05 07:49:07;;;;;;;5.60;1.30;;;9.10;99.90;;;;;;5042893;28;20040;-76
2022/04/05 07:51:33;;;;;;;6.97;1.63;;;9.30;99.90;;;;;;5069811;28;20328;-75
2022/04/05 07:53:59;;;;;;;3.90;1.53;;;9.30;99.90;;;;;;5056678;28;20044;-76
2022/04/05 07:56:26;;;;;;;3.30;1.40;;;9.30;99.90;;;;;;5063839;28;20040;-76
2022/04/05 07:58:51;;;;;;;6.67;1.80;;;9.20;99.90;;;;;;5050278;28;20431;-75
2022/04/05 08:01:18;;;;;;;4.93;1.50;;;9.20;99.90;;;;;;5063674;28;20047;-76
2022/04/05 08:03:44;;;;;;;5.87;1.43;;;9.10;99.90;;;;;;5068029;28;21110;-75
2022/04/05 08:06:09;;;;;;;4.70;1.30;;;9.10;99.90;;;;;;5073139;28;20073;-76
2022/04/05 08:08:35;;;;;;;3.23;1.17;;;9.00;99.90;;;;;;5062635;28;20086;-76
2022/04/05 08:11:01;;;;;;;3.73;1.20;;;9.00;99.90;;;;;;5052223;28;20097;-75
2022/04/05 08:13:28;;;;;;;4.13;1.40;;;9.00;99.90;;;;;;5054014;28;20467;-76
2022/04/05 08:15:55;;;;;;;5.57;1.40;;;9.10;99.90;;;;;;5054781;28;20084;-76
2022/04/05 08:18:21;;;;;;;7.03;1.57;;;9.20;99.90;;;;;;5046979;28;20459;-76
2022/04/05 08:20:47;;;;;;;5.40;1.00;;;9.20;99.90;;;;;;5059947;28;20066;-76
2022/04/05 08:23:13;;;;;;;5.60;1.60;;;9.20;99.90;;;;;;5070537;28;20051;-76
2022/04/05 08:25:39;;;;;;;6.90;1.90;;;9.30;99.90;;;;;;5058719;28;20055;-74
2022/04/05 08:28:05;;;;;;;4.83;1.50;;;9.30;99.90;;;;;;5039580;28;20043;-76
2022/04/05 08:30:33;;;;;;;3.53;1.10;;;9.30;99.90;;;;;;5055002;28;20055;-77
2022/04/05 08:32:59;;;;;;;3.63;1.17;;;9.30;99.90;;;;;;5055456;28;20047;-76
2022/04/05 08:35:25;;;;;;;5.20;1.43;;;9.30;99.90;;;;;;5069971;28;20037;-76
2022/04/05 08:37:52;;;;;;;4.13;1.10;;;9.40;99.90;;;;;;5048368;28;20502;-75
2022/04/05 08:40:21;;;;;;;6.80;2.10;;;9.40;99.90;;;;;;5046845;28;20076;-75
2022/04/05 08:42:49;;;;;;;4.17;1.13;;;9.50;99.90;;;;;;5061353;28;20589;-74
2022/04/05 08:45:16;;;;;;;6.87;1.30;;;9.50;99.90;;;;;;5040726;28;20402;-76
2022/04/05 08:47:47;;;;;;;4.50;1.27;;;9.60;99.90;;;;;;5039486;28;20500;-76
2022/04/05 08:50:14;;;;;;;6.67;1.70;;;9.60;99.90;;;;;;5074582;28;20044;-76
2022/04/05 08:52:39;;;;;;;4.40;1.20;;;9.50;99.90;;;;;;5065210;28;20617;-75
2022/04/05 08:55:06;;;;;;;4.10;1.23;;;9.40;99.90;;;;;;5046562;28;20131;-76
2022/04/05 08:57:31;;;;;;;5.43;1.57;;;9.40;99.90;;;;;;5059336;28;20513;-76
2022/04/05 08:59:57;;;;;;;3.57;1.40;;;9.30;99.90;;;;;;5078846;28;20040;-76
2022/04/05 09:02:24;;;;;;;6.50;1.73;;;9.40;99.90;;;;;;5045835;28;20457;-77
2022/04/05 09:04:52;;;;;;;4.33;1.80;;;9.50;99.90;;;;;;5045542;28;20047;-75
2022/04/05 09:07:19;;;;;;;5.10;1.87;;;9.60;99.90;;;;;;5069279;28;20068;-76
2022/04/05 09:09:44;;;;;;;2.33;1.47;;;9.70;99.90;;;;;;5050731;28;20102;-76
2022/04/05 09:12:15;;;;;;;3.90;1.30;;;9.80;99.90;;;;;;5055094;28;20483;-76
2022/04/05 09:14:42;;;;;;;7.20;1.53;;;9.80;99.90;;;;;;5065072;28;20064;-76
2022/04/05 09:17:10;;;;;;;2.87;1.00;;;9.90;99.90;;;;;;5082808;28;20041;-76
2022/04/05 09:19:37;;;;;;;6.13;1.50;;;9.90;99.90;;;;;;5086284;28;20133;-78
2022/04/05 09:22:05;;;;;;;5.37;1.63;;;9.90;99.90;;;;;;5054598;28;20142;-77
2022/04/05 09:24:35;;;;;;;3.93;1.23;;;9.90;99.90;;;;;;5044081;28;20074;-76
2022/04/05 09:27:02;;;;;;;3.63;1.20;;;9.90;99.90;;;;;;5075589;28;20127;-77
2022/04/05 09:29:38;;;;;;;4.20;1.40;;;9.80;99.90;;;;;;5072253;28;20560;-77
2022/04/05 09:32:04;;;;;;;3.50;1.27;;;9.90;99.90;;;;;;5072393;28;20119;-78
2022/04/05 09:34:30;;;;;;;4.50;1.20;;;10.00;99.90;;;;;;5073581;28;20036;-77
2022/04/05 09:36:56;;;;;;;2.03;1.20;;;10.10;99.90;;;;;;5055806;28;20144;-77
2022/04/05 09:39:25;;;;;;;3.57;1.37;;;10.20;99.90;;;;;;5057113;28;20131;-76
2022/04/05 09:42:01;;;;;;;2.37;1.10;;;10.20;99.90;;;;;;5074055;28;20087;-78
2022/04/05 09:44:28;;;;;;;2.83;1.23;;;10.30;99.90;;;;;;5072722;28;20554;-77
2022/04/05 09:47:06;;;;;;;1.87;1.10;;;10.30;99.90;;;;;;5068759;28;20036;-77
2022/04/05 09:49:34;;;;;;;3.17;1.00;;;10.40;99.90;;;;;;5070759;28;20105;-77
2022/04/05 09:52:00;;;;;;;1.83;0.93;;;10.50;99.90;;;;;;5088619;28;20085;-77
2022/04/05 09:54:29;;;;;;;0.93;0.70;;;10.60;99.90;;;;;;5080926;28;20036;-77
2022/04/05 09:57:00;;;;;;;3.53;0.80;;;10.70;99.90;;;;;;5068629;28;20044;-76
2022/04/05 09:59:36;;;;;;;1.00;0.80;;;10.70;99.90;;;;;;5068177;28;20041;-77
2022/04/05 10:02:08;;;;;;;0.70;0.60;;;10.60;99.90;;;;;;5071907;28;20438;-78
2022/04/05 10:04:35;;;;;;;1.40;0.70;;;10.60;99.90;;;;;;5051103;28;20052;-75
2022/04/05 10:07:03;;;;;;;1.47;0.80;;;10.70;99.90;;;;;;5071453;28;20055;-77
2022/04/05 10:09:30;;;;;;;2.87;0.90;;;10.60;99.90;;;;;;5078437;28;20052;-77
2022/04/05 10:11:57;;;;;;;1.60;1.00;;;10.50;99.90;;;;;;5065948;28;20068;-77
2022/04/05 10:14:23;;;;;;;1.27;0.90;;;10.50;99.90;;;;;;5069941;28;20040;-76
2022/04/05 10:16:49;;;;;;;1.30;1.07;;;10.50;99.90;;;;;;5057421;28;20093;-78
2022/04/05 10:19:16;;;;;;;1.33;1.00;;;10.50;99.90;;;;;;5072144;28;20508;-76
2022/04/05 10:21:42;;;;;;;1.27;1.00;;;10.40;99.90;;;;;;5054706;28;20052;-78
2022/04/05 10:24:10;;;;;;;1.80;1.50;;;10.40;99.90;;;;;;5028067;28;20140;-76
2022/04/05 10:26:39;;;;;;;1.70;1.30;;;10.30;99.90;;;;;;5071036;28;20032;-78
2022/04/05 10:29:06;;;;;;;1.77;1.60;;;10.30;99.90;;;;;;5063507;28;20040;-78
2022/04/05 10:31:42;;;;;;;1.80;1.70;;;10.30;99.90;;;;;;5091037;28;20127;-77
2022/04/05 10:34:16;;;;;;;3.50;1.80;;;10.40;99.90;;;;;;5076955;28;20040;-77
2022/04/05 10:37:08;;;;;;;2.95;2.33;;;10.50;99.90;;;;;;5072373;28;20577;-78
2022/04/05 10:39:33;;;;;;;2.83;2.27;;;10.60;99.90;;;;;;5073656;28;20055;-75
2022/04/05 10:42:21;;;;;;;2.57;2.03;;;10.70;99.90;;;;;;5073922;28;20400;-75
2022/04/05 10:44:50;;;;;;;2.57;2.20;;;10.80;99.90;;;;;;5090234;28;20071;-74
2022/04/05 10:47:16;;;;;;;3.13;2.17;;;10.80;99.90;;;;;;5074126;28;20032;-76
2022/04/05 10:49:44;;;;;;;2.37;2.13;;;10.90;99.90;;;;;;5069489;28;20044;-76
2022/04/05 10:52:11;;;;;;;2.83;2.43;;;10.80;99.90;;;;;;5073255;28;20040;-75
2022/04/05 10:54:40;;;;;;;4.87;2.80;;;10.80;99.90;;;;;;5072047;28;20032;-73
2022/04/05 10:57:17;;;;;;;4.23;3.17;;;10.80;99.90;;;;;;5079481;28;20055;-74
2022/04/05 10:59:48;;;;;;;4.07;3.07;;;10.90;99.90;;;;;;5091741;27;20513;-76
2022/04/05 11:02:30;;;;;;;7.50;3.10;;;11.00;99.90;;;;;;5056877;28;20099;-76
2022/04/05 11:05:01;;;;;;;3.30;2.80;;;11.10;99.90;;;;;;5072480;28;20598;-76
2022/04/05 11:07:27;;;;;;;4.47;3.27;;;11.10;99.90;;;;;;5045978;28;20052;-77
2022/04/05 11:09:54;;;;;;;4.07;3.50;;;11.10;99.90;;;;;;5060747;28;20471;-76
2022/04/05 11:12:25;;;;;;;4.40;4.00;;;11.20;99.90;;;;;;5066858;28;20464;-76
2022/04/05 11:14:53;;;;;;;4.30;3.33;;;11.60;99.90;;;;;;5068907;28;20326;-77
2022/04/05 11:17:21;;;;;;;4.33;3.70;;;12.20;99.90;;;;;;5049931;28;20225;-76
2022/04/05 11:19:52;;;;;;;3.80;3.40;;;12.60;99.90;;;;;;5063021;28;20179;-77
2022/04/05 11:22:43;;;;;;;3.53;3.23;;;13.00;99.90;;;;;;5087107;27;20040;-76
2022/04/05 11:25:10;;;;;;;3.80;3.40;;;13.30;99.90;;;;;;5010325;28;20051;-76
2022/04/05 11:27:45;;;;;;;3.77;3.37;;;13.30;99.90;;;;;;5047458;28;20040;-76
2022/04/05 11:30:47;;;;;;;2.90;2.53;;;13.50;99.90;;;;;;5084812;28;20059;-77
2022/04/05 11:33:37;;;;;;;3.17;2.87;;;13.70;99.90;;;;;;5051238;28;20045;-76
2022/04/05 11:36:05;;;;;;;2.97;2.63;;;13.50;99.90;;;;;;5046955;28;20044;-76
2022/04/05 11:38:32;;;;;;;3.10;2.80;;;13.30;99.90;;;;;;5076037;28;20047;-76
2022/04/05 11:41:00;;;;;;;3.20;2.90;;;13.00;99.90;;;;;;5090159;27;20043;-76
2022/04/05 11:43:30;;;;;;;3.30;3.00;;;12.80;99.90;;;;;;5074109;28;20236;-76
2022/04/05 11:45:57;;;;;;;2.87;2.67;;;12.70;99.90;;;;;;5042609;28;20135;-75
2022/04/05 11:48:28;;;;;;;3.73;2.80;;;12.80;99.90;;;;;;5062675;28;20412;-76
2022/04/05 11:50:55;;;;;;;3.10;2.70;;;12.70;99.90;;;;;;5064816;28;20067;-76
2022/04/05 11:53:23;;;;;;;3.47;2.80;;;12.50;99.90;;;;;;5078014;22;20068;-79
2022/04/05 11:56:13;;;;;;;3.33;2.63;;;12.40;99.90;;;;;;5043282;28;20053;-78
2022/04/05 11:58:43;;;;;;;3.10;2.80;;;12.30;99.90;;;;;;5065476;28;20049;-77
2022/04/05 12:01:11;;;;;;;3.47;3.17;;;12.10;99.90;;;;;;5053787;28;20055;-78
2022/04/05 12:03:41;;;;;;;3.93;2.90;;;12.00;99.90;;;;;;5062991;28;20536;-77
2022/04/05 12:06:07;;;;;;;3.73;2.87;;;12.00;99.90;;;;;;5060184;28;20505;-79
2022/04/05 12:08:33;;;;;;;3.63;3.33;;;12.00;99.90;;;;;;5033546;28;20084;-78
2022/04/05 12:10:59;;;;;;;3.60;3.30;;;12.10;99.90;;;;;;5059972;28;20044;-80
2022/04/05 12:13:28;;;;;;;4.13;3.20;;;12.20;99.90;;;;;;5056496;28;20085;-78
2022/04/05 12:15:59;;;;;;;4.57;3.77;;;12.30;99.90;;;;;;5039757;28;20044;-78
2022/04/05 12:18:28;;;;;;;5.10;3.90;;;12.50;99.90;;;;;;5032689;28;20741;-78
2022/04/05 12:20:55;;;;;;;4.80;4.07;;;12.60;99.90;;;;;;5063852;28;20155;-78
2022/04/05 12:23:22;;;;;;;5.07;4.43;;;12.90;99.90;;;;;;5042959;28;20115;-80
2022/04/05 12:26:09;;;;;;;6.60;4.83;;;12.90;99.90;;;;;;5050525;28;20044;-79
2022/04/05 12:28:37;;;;;;;5.47;4.37;;;12.70;99.90;;;;;;5057365;28;20035;-77
2022/04/05 12:31:13;;;;;;;8.33;5.07;;;12.50;99.90;;;;;;5040070;28;20071;-79
2022/04/05 12:33:42;;;;;;;6.80;4.60;;;12.40;99.90;;;;;;5030231;28;20055;-80
2022/04/05 12:36:08;;;;;;;7.77;4.33;;;12.30;99.90;;;;;;5022253;28;20501;-78
2022/04/05 12:38:35;;;;;;;5.87;4.10;;;12.20;99.90;;;;;;5030903;28;20040;-78
2022/04/05 12:41:02;;;;;;;7.10;4.27;;;12.00;99.90;;;;;;5065891;28;20119;-78
2022/04/05 12:43:28;;;;;;;6.73;4.47;;;11.80;99.90;;;;;;5050458;28;20136;-79
2022/04/05 12:45:54;;;;;;;7.67;4.50;;;11.70;99.90;;;;;;5046608;28;20459;-78
2022/04/05 12:48:22;;;;;;;12.20;5.00;;;11.60;99.90;;;;;;5060861;28;20119;-78
2022/04/05 12:50:50;;;;;;;9.20;5.67;;;11.50;99.90;;;;;;5045498;28;20075;-77
2022/04/05 12:53:26;;;;;;;9.10;5.20;;;11.40;99.90;;;;;;5056132;28;20036;-78